Time;durP1;ratioP1;P1;durP2;ratioP2;P2;SDS_P1;SDS_P2;PMS_P1;PMS_P2;Temp;Humidity;BMP_temperature;BMP_pressure;BME280_temperature;BME280_humidity;BME280_pressure;Samples;Min_cycle;Max_cycle;Signal;HPM_P1;HPM_P2
2023/05/21 00:00:14;;;;;;;13.27;10.57;;;14.40;1.00;;;;;;5050144;28;20064;-57
2023/05/21 00:02:40;;;;;;;15.50;10.52;;;14.40;1.00;;;;;;5051067;28;20072;-57
2023/05/21 00:05:10;;;;;;;14.32;10.75;;;14.40;1.00;;;;;;5045520;28;20028;-57
2023/05/21 00:07:36;;;;;;;14.30;10.45;;;14.40;1.00;;;;;;5044839;28;20365;-58
2023/05/21 00:10:01;;;;;;;16.52;11.02;;;14.40;1.00;;;;;;5041153;28;20048;-57
2023/05/21 00:12:27;;;;;;;13.10;10.30;;;14.40;1.00;;;;;;5052696;28;20127;-57
2023/05/21 00:14:52;;;;;;;13.02;10.23;;;14.60;1.00;;;;;;5047840;28;20175;-57
2023/05/21 00:17:18;;;;;;;12.57;10.10;;;14.50;1.00;;;;;;5044559;28;20033;-57
2023/05/21 00:19:44;;;;;;;13.57;10.40;;;14.50;1.00;;;;;;5046266;28;20037;-57
2023/05/21 00:22:09;;;;;;;18.23;10.88;;;14.40;1.00;;;;;;5049225;28;20060;-57
2023/05/21 00:24:35;;;;;;;12.52;10.35;;;14.30;1.00;;;;;;5047266;28;20040;-57
2023/05/21 00:27:00;;;;;;;14.43;10.63;;;14.40;1.00;;;;;;5047452;28;20043;-57
2023/05/21 00:29:26;;;;;;;15.15;11.40;;;14.40;1.00;;;;;;5047651;28;20115;-57
2023/05/21 00:31:52;;;;;;;14.68;10.45;;;14.40;1.00;;;;;;5046706;28;20507;-57
2023/05/21 00:34:18;;;;;;;15.00;11.02;;;14.50;1.00;;;;;;5047721;28;20507;-57
2023/05/21 00:36:45;;;;;;;13.77;9.95;;;14.40;1.00;;;;;;5054356;28;20036;-57
2023/05/21 00:39:12;;;;;;;14.82;10.40;;;14.30;1.00;;;;;;5037437;28;20390;-57
2023/05/21 00:41:38;;;;;;;15.60;10.80;;;14.30;1.00;;;;;;5054807;28;20484;-57
2023/05/21 00:44:05;;;;;;;12.25;10.02;;;14.20;1.00;;;;;;5054757;28;20039;-57
2023/05/21 00:46:31;;;;;;;11.68;9.48;;;14.20;1.00;;;;;;5049979;28;20094;-58
2023/05/21 00:48:57;;;;;;;12.18;9.75;;;14.30;1.00;;;;;;5050671;28;20460;-57
2023/05/21 00:51:24;;;;;;;12.52;9.50;;;14.30;1.00;;;;;;5050781;28;20033;-57
2023/05/21 00:53:54;;;;;;;13.38;9.27;;;14.30;1.00;;;;;;5049021;28;20523;-57
2023/05/21 00:56:22;;;;;;;11.52;8.85;;;14.30;1.00;;;;;;5052360;28;20037;-57
2023/05/21 00:58:50;;;;;;;12.25;8.85;;;14.20;1.00;;;;;;5046993;28;20623;-57
2023/05/21 01:01:17;;;;;;;10.88;8.05;;;14.10;1.00;;;;;;5041656;28;20052;-57
2023/05/21 01:03:43;;;;;;;12.95;8.15;;;14.10;1.00;;;;;;5050878;28;20033;-57
2023/05/21 01:06:09;;;;;;;9.77;8.02;;;14.20;1.00;;;;;;5049685;28;20060;-57
2023/05/21 01:08:39;;;;;;;12.38;8.48;;;14.20;1.00;;;;;;5047495;28;20827;-57
2023/05/21 01:11:06;;;;;;;12.80;8.20;;;14.20;1.00;;;;;;5050515;28;20033;-57
2023/05/21 01:13:37;;;;;;;12.52;8.30;;;14.30;1.00;;;;;;5044168;28;20742;-57
2023/05/21 01:16:05;;;;;;;13.65;9.00;;;14.20;1.00;;;;;;5045081;28;20033;-56
2023/05/21 01:18:33;;;;;;;13.02;8.85;;;14.10;1.00;;;;;;5048806;28;20750;-57
2023/05/21 01:21:00;;;;;;;12.82;9.60;;;14.00;1.00;;;;;;5048326;28;20044;-57
2023/05/21 01:23:27;;;;;;;11.55;9.65;;;13.70;20.60;;;;;;5046802;28;20102;-57
2023/05/21 01:25:52;;;;;;;11.13;9.10;;;13.50;66.20;;;;;;5044763;28;20516;-57
2023/05/21 01:28:18;;;;;;;13.65;9.40;;;13.80;23.70;;;;;;5058221;28;20047;-57
2023/05/21 01:30:43;;;;;;;13.93;10.48;;;13.90;1.00;;;;;;5044007;28;20147;-57
2023/05/21 01:33:32;;;;;;;13.90;10.30;;;14.10;1.00;;;;;;5045301;28;20716;-57
2023/05/21 01:36:12;;;;;;;12.15;9.82;;;14.00;1.00;;;;;;5045101;28;20044;-57
2023/05/21 01:39:06;;;;;;;14.65;10.27;;;13.90;1.00;;;;;;5054042;28;20068;-57
2023/05/21 01:41:37;;;;;;;13.85;10.10;;;13.80;8.10;;;;;;5050777;28;20036;-57
2023/05/21 01:44:04;;;;;;;16.52;11.73;;;13.50;57.80;;;;;;5050050;28;20047;-57
2023/05/21 01:46:33;;;;;;;18.02;12.63;;;13.80;8.30;;;;;;5051530;28;20090;-57
2023/05/21 01:48:59;;;;;;;17.17;11.48;;;13.80;8.50;;;;;;5050049;28;20040;-57
2023/05/21 01:51:25;;;;;;;15.30;11.55;;;13.70;17.00;;;;;;5047144;28;20037;-57
2023/05/21 01:53:51;;;;;;;13.95;10.95;;;13.70;12.00;;;;;;5051611;28;20825;-57
2023/05/21 01:56:17;;;;;;;13.52;10.50;;;13.70;34.80;;;;;;5057289;28;20090;-57
2023/05/21 01:58:42;;;;;;;14.45;10.07;;;13.60;38.10;;;;;;5052800;28;20034;-57
2023/05/21 02:01:08;;;;;;;15.23;10.30;;;13.60;27.70;;;;;;5050081;28;20037;-57
2023/05/21 02:03:34;;;;;;;11.48;9.43;;;13.60;40.20;;;;;;5059961;28;20507;-57
2023/05/21 02:06:00;;;;;;;12.93;9.07;;;13.70;23.40;;;;;;5050006;28;20072;-57
2023/05/21 02:08:26;;;;;;;13.55;9.10;;;13.60;22.80;;;;;;5043148;28;20246;-57
2023/05/21 02:10:52;;;;;;;10.30;9.20;;;13.60;58.10;;;;;;5048398;28;20059;-57
2023/05/21 02:13:21;;;;;;;12.02;9.77;;;13.70;22.00;;;;;;5048779;28;20515;-57
2023/05/21 02:15:47;;;;;;;13.25;9.40;;;13.50;37.20;;;;;;5048828;28;20060;-57
2023/05/21 02:18:17;;;;;;;12.88;9.52;;;13.30;97.20;;;;;;5047552;28;20184;-57
2023/05/21 02:20:43;;;;;;;10.45;8.90;;;13.30;99.90;;;;;;5057172;28;20084;-57
2023/05/21 02:23:08;;;;;;;14.00;8.93;;;13.20;99.90;;;;;;5047455;28;20091;-57
2023/05/21 02:25:34;;;;;;;10.95;8.20;;;13.20;99.90;;;;;;5050940;28;20048;-57
2023/05/21 02:28:01;;;;;;;13.10;8.73;;;13.20;99.90;;;;;;5052654;28;20325;-57
2023/05/21 02:30:26;;;;;;;10.32;8.27;;;13.40;84.10;;;;;;5051136;28;20124;-57
2023/05/21 02:32:52;;;;;;;11.18;8.68;;;13.40;91.50;;;;;;5052059;28;20132;-57
2023/05/21 02:35:18;;;;;;;12.60;9.07;;;13.40;67.10;;;;;;5047152;28;20037;-57
2023/05/21 02:37:44;;;;;;;11.45;9.00;;;13.30;99.90;;;;;;5050971;28;20043;-57
2023/05/21 02:40:10;;;;;;;12.95;8.52;;;13.30;99.90;;;;;;5050318;28;20132;-57
2023/05/21 02:42:38;;;;;;;10.50;8.50;;;13.40;79.90;;;;;;5058629;28;21316;-57
2023/05/21 02:45:05;;;;;;;12.70;9.18;;;13.50;56.70;;;;;;5053100;28;20111;-57
2023/05/21 02:47:31;;;;;;;10.73;8.73;;;13.50;43.20;;;;;;5048958;28;20064;-57
2023/05/21 02:49:58;;;;;;;12.77;8.75;;;13.40;77.70;;;;;;5053077;28;20045;-57
2023/05/21 02:52:24;;;;;;;10.70;8.45;;;13.40;88.60;;;;;;5053300;28;20040;-57
2023/05/21 02:54:51;;;;;;;11.80;9.30;;;13.40;99.90;;;;;;5048503;28;20041;-57
2023/05/21 02:57:17;;;;;;;12.27;8.70;;;13.50;37.10;;;;;;5055915;28;20134;-57
2023/05/21 02:59:43;;;;;;;13.48;8.43;;;13.50;49.40;;;;;;5054255;28;20039;-57
2023/05/21 03:02:09;;;;;;;10.43;8.10;;;13.50;19.40;;;;;;5054863;28;20291;-57
2023/05/21 03:04:37;;;;;;;13.40;8.68;;;13.50;52.20;;;;;;5046527;28;20044;-57
2023/05/21 03:07:04;;;;;;;9.35;8.27;;;13.40;61.30;;;;;;5052559;28;20161;-57
2023/05/21 03:09:29;;;;;;;9.85;8.02;;;13.50;58.10;;;;;;5055910;28;20036;-57
2023/05/21 03:11:55;;;;;;;11.00;9.02;;;13.30;84.90;;;;;;5048373;28;20043;-57
2023/05/21 03:14:21;;;;;;;11.50;8.10;;;13.30;99.90;;;;;;5047445;28;20075;-57
2023/05/21 03:16:47;;;;;;;11.48;9.10;;;13.40;77.40;;;;;;5057714;28;20036;-57
2023/05/21 03:19:13;;;;;;;14.32;9.20;;;13.50;62.20;;;;;;5046941;28;20033;-57
2023/05/21 03:21:39;;;;;;;10.07;8.30;;;13.40;79.50;;;;;;5054447;28;20589;-57
2023/05/21 03:24:05;;;;;;;10.80;8.02;;;13.40;93.60;;;;;;5057933;28;20032;-57
2023/05/21 03:26:31;;;;;;;11.65;8.57;;;13.30;99.90;;;;;;5058454;28;20039;-57
2023/05/21 03:28:57;;;;;;;11.48;8.68;;;13.40;92.40;;;;;;5054848;28;20403;-57
2023/05/21 03:31:23;;;;;;;10.75;8.30;;;13.40;81.00;;;;;;5047536;28;20151;-57
2023/05/21 03:33:50;;;;;;;14.27;9.38;;;13.50;57.10;;;;;;5051720;28;20037;-57
2023/05/21 03:36:15;;;;;;;11.95;8.88;;;13.60;44.40;;;;;;5050747;28;20093;-57
2023/05/21 03:38:41;;;;;;;13.23;8.23;;;13.40;80.00;;;;;;5054417;28;20040;-57
2023/05/21 03:41:07;;;;;;;10.10;8.65;;;13.30;99.90;;;;;;5048083;28;20040;-55
2023/05/21 03:43:33;;;;;;;11.50;8.43;;;13.20;99.90;;;;;;5054220;28;20105;-57
2023/05/21 03:45:59;;;;;;;9.43;7.70;;;13.10;99.90;;;;;;5056141;28;20048;-57
2023/05/21 03:48:25;;;;;;;10.60;8.00;;;13.30;99.90;;;;;;5046474;28;20043;-57
2023/05/21 03:50:50;;;;;;;11.05;7.93;;;13.40;87.60;;;;;;5050750;28;20137;-57
2023/05/21 03:53:16;;;;;;;11.00;7.90;;;13.40;99.90;;;;;;5042562;28;20079;-57
2023/05/21 03:55:42;;;;;;;11.65;7.97;;;13.40;99.90;;;;;;5045315;28;20122;-57
2023/05/21 03:58:09;;;;;;;11.40;7.97;;;13.30;99.90;;;;;;5041872;28;20060;-57
2023/05/21 04:00:36;;;;;;;11.18;8.13;;;13.20;99.90;;;;;;5047019;28;20036;-56
2023/05/21 04:03:02;;;;;;;10.93;8.20;;;13.20;99.90;;;;;;5048130;28;20119;-56
2023/05/21 04:05:28;;;;;;;12.60;8.05;;;13.30;99.90;;;;;;5047087;28;20037;-57
2023/05/21 04:07:53;;;;;;;11.63;7.80;;;13.30;99.90;;;;;;5052650;28;20037;-57
2023/05/21 04:10:19;;;;;;;12.88;8.30;;;13.30;99.90;;;;;;5046447;28;20044;-57
2023/05/21 04:12:47;;;;;;;9.80;8.48;;;13.50;76.40;;;;;;5051998;28;20127;-57
2023/05/21 04:15:17;;;;;;;10.32;8.00;;;13.50;94.50;;;;;;5050316;28;20098;-57
2023/05/21 04:17:44;;;;;;;12.70;8.50;;;13.50;86.60;;;;;;5046000;28;20557;-57
2023/05/21 04:20:16;;;;;;;10.80;8.25;;;13.20;99.90;;;;;;5047884;28;20048;-57
2023/05/21 04:22:42;;;;;;;12.27;8.40;;;13.20;99.90;;;;;;5045160;28;20040;-57
2023/05/21 04:25:08;;;;;;;9.98;8.02;;;13.40;99.90;;;;;;5046692;28;20140;-57
2023/05/21 04:27:35;;;;;;;11.57;8.02;;;13.20;99.90;;;;;;5049461;28;20037;-57
2023/05/21 04:30:02;;;;;;;10.77;8.23;;;13.30;99.90;;;;;;5050266;28;20097;-57
2023/05/21 04:32:32;;;;;;;13.13;9.18;;;13.30;99.90;;;;;;5050876;28;20051;-57
2023/05/21 04:34:59;;;;;;;9.82;8.18;;;13.20;99.90;;;;;;5050282;28;20048;-57
2023/05/21 04:37:30;;;;;;;11.82;7.90;;;13.40;99.90;;;;;;5050977;28;20087;-57
2023/05/21 04:39:56;;;;;;;11.20;8.38;;;13.50;99.90;;;;;;5056720;28;20831;-57
2023/05/21 04:42:22;;;;;;;11.20;8.65;;;13.50;99.70;;;;;;5050297;28;20044;-57
2023/05/21 04:44:49;;;;;;;12.60;8.75;;;13.50;99.90;;;;;;5049999;28;20173;-57
2023/05/21 04:47:17;;;;;;;11.20;8.88;;;13.40;99.90;;;;;;5045362;28;20742;-57
2023/05/21 04:49:43;;;;;;;11.27;8.23;;;13.50;99.90;;;;;;5045568;28;20032;-57
2023/05/21 04:52:08;;;;;;;16.30;9.02;;;13.50;99.90;;;;;;5053613;28;20043;-57
2023/05/21 04:54:35;;;;;;;12.80;8.60;;;13.40;99.90;;;;;;5050553;28;20037;-57
2023/05/21 04:57:01;;;;;;;11.07;8.45;;;13.70;92.30;;;;;;5050041;28;20267;-60
2023/05/21 04:59:27;;;;;;;10.52;8.57;;;13.70;55.60;;;;;;5047377;28;20378;-60
2023/05/21 05:01:52;;;;;;;10.27;8.30;;;13.70;90.00;;;;;;5053358;28;20043;-60
2023/05/21 05:04:18;;;;;;;10.98;8.80;;;13.70;99.90;;;;;;5051649;28;20493;-60
2023/05/21 05:06:44;;;;;;;11.80;8.93;;;13.50;99.90;;;;;;5052047;28;20037;-60
2023/05/21 05:09:10;;;;;;;12.93;8.93;;;13.60;99.90;;;;;;5050136;28;20124;-59
2023/05/21 05:11:35;;;;;;;11.05;8.80;;;13.40;99.90;;;;;;5053262;28;20388;-60
2023/05/21 05:14:01;;;;;;;14.85;9.10;;;13.40;99.90;;;;;;5051783;28;20036;-60
2023/05/21 05:16:28;;;;;;;21.25;9.65;;;13.70;99.90;;;;;;5053022;28;20163;-60
2023/05/21 05:18:54;;;;;;;11.95;9.18;;;13.70;99.90;;;;;;5052293;28;20029;-60
2023/05/21 05:21:21;;;;;;;12.70;9.00;;;13.90;99.90;;;;;;5049683;28;20665;-60
2023/05/21 05:23:46;;;;;;;11.10;9.20;;;13.90;89.90;;;;;;5054847;28;20313;-60
2023/05/21 05:26:12;;;;;;;11.27;9.38;;;13.80;94.00;;;;;;5049156;28;20043;-60
2023/05/21 05:28:38;;;;;;;13.00;9.55;;;13.80;91.10;;;;;;5047468;28;20025;-60
2023/05/21 05:31:03;;;;;;;13.95;9.32;;;13.90;62.30;;;;;;5051383;28;20040;-60
2023/05/21 05:33:29;;;;;;;12.98;9.13;;;13.80;97.00;;;;;;5052370;28;20098;-60
2023/05/21 05:35:55;;;;;;;12.80;8.68;;;13.80;99.90;;;;;;5059197;28;20131;-60
2023/05/21 05:38:20;;;;;;;11.65;9.13;;;13.90;96.20;;;;;;5058559;28;20044;-60
2023/05/21 05:40:46;;;;;;;12.68;8.82;;;13.80;99.90;;;;;;5056237;28;20044;-60
2023/05/21 05:43:12;;;;;;;12.70;8.82;;;14.00;82.10;;;;;;5047489;28;20062;-60
2023/05/21 05:45:37;;;;;;;13.20;9.60;;;14.00;78.20;;;;;;5055542;28;20036;-60
2023/05/21 05:48:03;;;;;;;12.13;9.15;;;14.00;99.90;;;;;;5054496;28;20081;-60
2023/05/21 05:50:28;;;;;;;16.75;9.25;;;14.00;99.90;;;;;;5048717;28;20037;-60
2023/05/21 05:52:54;;;;;;;11.75;8.95;;;13.90;99.90;;;;;;5049750;28;20645;-60
2023/05/21 05:55:20;;;;;;;11.35;9.63;;;13.90;99.90;;;;;;5052700;28;20065;-60
2023/05/21 05:57:46;;;;;;;10.90;9.00;;;14.10;96.90;;;;;;5056508;28;20083;-60
2023/05/21 06:00:12;;;;;;;12.20;9.02;;;14.10;86.50;;;;;;5052748;28;20131;-60
2023/05/21 06:02:38;;;;;;;13.80;9.20;;;14.20;69.60;;;;;;5052287;28;20726;-60
2023/05/21 06:05:05;;;;;;;12.45;9.38;;;14.40;56.50;;;;;;5052373;28;20036;-60
2023/05/21 06:07:31;;;;;;;12.73;9.10;;;14.10;91.50;;;;;;5056024;28;20049;-60
2023/05/21 06:09:57;;;;;;;12.98;9.38;;;14.40;64.40;;;;;;5054007;28;20043;-61
2023/05/21 06:12:23;;;;;;;12.20;9.60;;;14.40;52.10;;;;;;5057430;28;20424;-60
2023/05/21 06:14:49;;;;;;;14.63;9.45;;;14.50;6.10;;;;;;5053147;28;20040;-61
2023/05/21 06:17:15;;;;;;;14.63;10.25;;;14.60;4.60;;;;;;5054967;28;20048;-61
2023/05/21 06:19:40;;;;;;;10.60;9.50;;;14.50;16.90;;;;;;5057192;28;20051;-60
2023/05/21 06:22:06;;;;;;;13.23;9.68;;;14.50;15.00;;;;;;5056364;28;20036;-60
2023/05/21 06:24:31;;;;;;;12.63;9.68;;;14.50;21.20;;;;;;5049222;28;20041;-61
2023/05/21 06:26:57;;;;;;;11.75;10.00;;;14.60;17.80;;;;;;5052751;28;20048;-61
2023/05/21 06:29:22;;;;;;;13.57;10.07;;;14.60;1.00;;;;;;5049713;28;20044;-60
2023/05/21 06:31:48;;;;;;;13.10;9.48;;;14.80;1.00;;;;;;5052587;28;20514;-60
2023/05/21 06:34:14;;;;;;;15.27;9.82;;;14.80;1.00;;;;;;5046915;28;20547;-61
2023/05/21 06:36:39;;;;;;;15.02;9.68;;;14.70;1.00;;;;;;5046625;28;20043;-61
2023/05/21 06:39:05;;;;;;;12.18;9.13;;;14.90;1.00;;;;;;5052258;28;20696;-60
2023/05/21 06:41:31;;;;;;;15.95;9.55;;;14.80;1.00;;;;;;5049602;28;20029;-61
2023/05/21 06:43:56;;;;;;;10.60;9.27;;;15.10;1.00;;;;;;5046180;28;20053;-61
2023/05/21 06:46:22;;;;;;;10.52;8.95;;;15.20;1.00;;;;;;5046213;28;20447;-60
2023/05/21 06:48:47;;;;;;;11.18;9.38;;;15.40;1.00;;;;;;5052053;28;20738;-61
2023/05/21 06:51:13;;;;;;;14.30;10.02;;;15.40;1.00;;;;;;5046998;28;20078;-61
2023/05/21 06:53:39;;;;;;;14.88;9.65;;;15.30;1.00;;;;;;5049640;28;20055;-60
2023/05/21 06:56:05;;;;;;;16.30;10.32;;;15.60;1.00;;;;;;5044831;28;20058;-60
2023/05/21 06:58:30;;;;;;;12.65;10.23;;;15.30;1.00;;;;;;5050246;28;20045;-61
2023/05/21 07:00:57;;;;;;;15.90;10.48;;;15.30;1.00;;;;;;5051441;28;20041;-61
2023/05/21 07:03:22;;;;;;;14.90;10.23;;;15.40;1.00;;;;;;5052670;28;20076;-61
2023/05/21 07:05:48;;;;;;;12.27;10.23;;;15.40;1.00;;;;;;5051687;28;20158;-61
2023/05/21 07:08:13;;;;;;;14.05;10.13;;;15.40;1.00;;;;;;5051426;28;20110;-61
2023/05/21 07:10:39;;;;;;;14.23;10.55;;;15.60;1.00;;;;;;5043740;28;20036;-61
2023/05/21 07:13:05;;;;;;;14.63;10.80;;;15.60;1.00;;;;;;5052873;28;20025;-60
2023/05/21 07:15:30;;;;;;;13.48;10.65;;;15.70;1.00;;;;;;5058881;28;20079;-61
2023/05/21 07:17:56;;;;;;;15.63;11.60;;;15.70;1.00;;;;;;5054049;28;20372;-60
2023/05/21 07:20:21;;;;;;;15.52;10.60;;;15.70;1.00;;;;;;5058947;28;20044;-61
2023/05/21 07:22:47;;;;;;;12.52;10.63;;;15.90;1.00;;;;;;5056568;28;20028;-61
2023/05/21 07:25:12;;;;;;;16.35;10.00;;;15.80;1.00;;;;;;5055316;28;20202;-61
2023/05/21 07:27:38;;;;;;;12.82;9.90;;;15.80;1.00;;;;;;5052053;28;20091;-61
2023/05/21 07:30:04;;;;;;;12.05;10.18;;;16.00;1.00;;;;;;5063693;28;20036;-61
2023/05/21 07:32:30;;;;;;;13.40;10.95;;;16.00;1.00;;;;;;5066433;28;20221;-61
2023/05/21 07:34:56;;;;;;;13.70;10.88;;;;;;;;;;5061544;28;20408;-61
2023/05/21 07:37:21;;;;;;;12.52;9.90;;;16.10;1.00;;;;;;5063627;28;20079;-65
2023/05/21 07:39:47;;;;;;;14.43;10.93;;;16.10;1.00;;;;;;5060414;28;20278;-65
2023/05/21 07:42:12;;;;;;;14.93;11.15;;;16.30;1.00;;;;;;5053643;28;20178;-65
2023/05/21 07:44:38;;;;;;;15.80;11.10;;;16.30;1.00;;;;;;5056684;28;20124;-65
2023/05/21 07:47:04;;;;;;;14.35;11.15;;;16.40;1.00;;;;;;5053603;28;20040;-65
2023/05/21 07:49:29;;;;;;;14.77;10.13;;;16.80;1.00;;;;;;5054555;28;20032;-65
2023/05/21 07:51:55;;;;;;;16.80;10.77;;;16.90;1.00;;;;;;5055630;28;20520;-66
2023/05/21 07:54:21;;;;;;;15.75;11.02;;;17.10;1.00;;;;;;5058610;28;20040;-65
2023/05/21 07:56:46;;;;;;;16.65;11.23;;;17.10;1.00;;;;;;5056553;28;20039;-65
2023/05/21 07:59:13;;;;;;;17.88;11.80;;;17.10;1.00;;;;;;5056723;28;20773;-65
2023/05/21 08:01:39;;;;;;;16.58;11.18;;;17.10;1.00;;;;;;5053915;28;20028;-66
2023/05/21 08:04:05;;;;;;;14.02;11.25;;;17.20;1.00;;;;;;5061106;28;20555;-65
2023/05/21 08:06:32;;;;;;;15.38;11.38;;;17.30;99.90;;;;;;5062241;28;20119;-66
2023/05/21 08:09:02;;;;;;;17.20;11.77;;;17.30;1.00;;;;;;5059656;28;20175;-65
2023/05/21 08:11:28;;;;;;;17.42;12.02;;;17.10;1.00;;;;;;5054401;28;20098;-65
2023/05/21 08:13:55;;;;;;;15.88;12.00;;;17.20;1.00;;;;;;5061529;28;20440;-65
2023/05/21 08:16:22;;;;;;;13.15;10.60;;;17.10;1.00;;;;;;5061018;28;20123;-64
2023/05/21 08:18:48;;;;;;;16.38;11.48;;;17.00;1.00;;;;;;5058012;28;20069;-65
2023/05/21 08:21:13;;;;;;;15.52;12.05;;;17.30;1.00;;;;;;5054423;28;20512;-65
2023/05/21 08:23:39;;;;;;;15.70;11.80;;;17.30;99.90;;;;;;5062751;28;20404;-65
2023/05/21 08:26:05;;;;;;;14.45;11.98;;;17.30;99.90;;;;;;5055824;28;20319;-65
2023/05/21 08:28:31;;;;;;;14.80;11.10;;;17.30;99.90;;;;;;5058246;28;20128;-66
2023/05/21 08:30:56;;;;;;;14.75;11.02;;;17.40;99.90;;;;;;5048944;28;20726;-65
2023/05/21 08:33:22;;;;;;;13.55;11.55;;;17.40;99.90;;;;;;5055456;28;20546;-65
2023/05/21 08:35:48;;;;;;;16.40;12.20;;;17.50;99.90;;;;;;5046285;28;20033;-66
2023/05/21 08:38:15;;;;;;;16.58;11.50;;;17.70;99.90;;;;;;5043808;28;20059;-66
2023/05/21 08:40:41;;;;;;;18.10;12.05;;;17.70;99.90;;;;;;5051807;28;20383;-66
2023/05/21 08:43:12;;;;;;;13.43;12.00;;;17.70;99.90;;;;;;5051466;28;20048;-65
2023/05/21 08:45:41;;;;;;;13.65;11.65;;;18.00;99.90;;;;;;5054118;28;20559;-67
2023/05/21 08:48:10;;;;;;;15.52;12.13;;;17.80;99.90;;;;;;5051649;28;20459;-66
2023/05/21 08:50:36;;;;;;;14.43;11.80;;;17.80;99.90;;;;;;5044756;28;22082;-65
2023/05/21 08:53:01;;;;;;;16.23;11.98;;;17.90;99.90;;;;;;5045707;28;20457;-59
2023/05/21 08:55:27;;;;;;;15.68;12.00;;;18.00;99.90;;;;;;5048125;28;20040;-67
2023/05/21 08:57:53;;;;;;;17.63;12.68;;;18.10;99.90;;;;;;5052641;28;20089;-67
2023/05/21 09:00:19;;;;;;;15.95;11.57;;;18.20;99.90;;;;;;5047194;28;20033;-67
2023/05/21 09:02:45;;;;;;;16.42;12.25;;;18.30;99.90;;;;;;5044776;28;20114;-63
2023/05/21 09:05:13;;;;;;;17.30;11.98;;;18.30;99.90;;;;;;5045962;28;20557;-64
2023/05/21 09:07:46;;;;;;;19.42;12.07;;;18.20;99.90;;;;;;5046178;28;20032;-68
2023/05/21 09:10:13;;;;;;;18.73;13.52;;;18.10;99.90;;;;;;5048673;28;20051;-66
2023/05/21 09:12:39;;;;;;;17.60;12.18;;;18.00;99.90;;;;;;5054450;28;20028;-66
2023/05/21 09:15:05;;;;;;;16.73;12.48;;;18.10;99.90;;;;;;5037079;28;20140;-66
2023/05/21 09:17:31;;;;;;;15.55;12.35;;;18.20;99.90;;;;;;5044183;28;20061;-66
2023/05/21 09:20:11;;;;;;;19.75;12.70;;;18.20;99.90;;;;;;5047861;28;20072;-67
2023/05/21 09:22:39;;;;;;;15.63;12.57;;;18.10;99.90;;;;;;5045700;28;20175;-67
2023/05/21 09:25:09;;;;;;;16.40;12.48;;;18.10;99.90;;;;;;5042791;28;20033;-68
2023/05/21 09:27:35;;;;;;;20.83;13.13;;;18.20;99.90;;;;;;5049387;28;21126;-67
2023/05/21 09:30:02;;;;;;;19.38;13.27;;;18.20;99.90;;;;;;5048607;28;20036;-67
2023/05/21 09:32:28;;;;;;;16.23;12.50;;;18.30;99.90;;;;;;5055005;28;20139;-67
2023/05/21 09:34:53;;;;;;;18.02;12.52;;;18.50;99.90;;;;;;5051616;28;20120;-68
2023/05/21 09:37:19;;;;;;;18.30;12.73;;;18.60;99.90;;;;;;5050239;28;20377;-68
2023/05/21 09:39:46;;;;;;;13.52;11.85;;;18.60;99.90;;;;;;5048607;28;20037;-67
2023/05/21 09:42:12;;;;;;;18.35;12.40;;;18.40;99.90;;;;;;5040854;28;20067;-66
2023/05/21 09:44:38;;;;;;;16.33;13.10;;;18.20;99.90;;;;;;5037804;28;20127;-66
2023/05/21 09:47:04;;;;;;;17.42;12.50;;;18.60;99.90;;;;;;5050157;28;20436;-66
2023/05/21 09:49:30;;;;;;;14.00;11.63;;;18.80;99.90;;;;;;5049877;28;20041;-66
2023/05/21 09:51:56;;;;;;;17.80;11.65;;;19.00;99.90;;;;;;5045469;28;20122;-67
2023/05/21 09:54:23;;;;;;;13.52;11.68;;;19.00;99.90;;;;;;5040929;28;20053;-66
2023/05/21 09:56:53;;;;;;;17.58;12.02;;;18.90;99.90;;;;;;5043664;28;20171;-66
2023/05/21 09:59:20;;;;;;;16.48;12.10;;;19.00;99.90;;;;;;5045175;28;20033;-64
2023/05/21 10:01:48;;;;;;;15.32;12.15;;;19.10;99.90;;;;;;5046253;28;20067;-66
2023/05/21 10:04:15;;;;;;;15.38;11.82;;;19.00;99.90;;;;;;5039193;28;20515;-66
2023/05/21 10:06:46;;;;;;;15.20;12.52;;;19.00;99.90;;;;;;5051000;28;20037;-66
2023/05/21 10:09:14;;;;;;;14.43;12.30;;;18.80;99.90;;;;;;5043499;28;20506;-65
2023/05/21 10:11:43;;;;;;;16.73;13.65;;;18.90;99.90;;;;;;5043695;28;20543;-65
2023/05/21 10:14:15;;;;;;;13.65;11.80;;;19.10;99.90;;;;;;5051274;28;20060;-64
2023/05/21 10:16:41;;;;;;;15.07;12.40;;;19.00;99.90;;;;;;5047883;28;20098;-56
2023/05/21 10:19:10;;;;;;;16.83;11.82;;;18.90;99.90;;;;;;5046298;28;20492;-57
2023/05/21 10:21:38;;;;;;;14.27;12.35;;;18.80;99.90;;;;;;5054385;28;20050;-56
2023/05/21 10:24:05;;;;;;;18.42;13.30;;;19.20;99.90;;;;;;5053110;28;20032;-56
2023/05/21 10:26:31;;;;;;;15.93;12.55;;;19.30;99.90;;;;;;5051682;28;20135;-55
2023/05/21 10:28:59;;;;;;;18.10;13.73;;;19.40;99.90;;;;;;5050397;28;20033;-56
2023/05/21 10:31:25;;;;;;;16.83;13.13;;;19.10;99.90;;;;;;5055188;28;20036;-56
2023/05/21 10:33:53;;;;;;;16.98;13.80;;;19.10;99.90;;;;;;5053321;28;20435;-55
2023/05/21 10:36:20;;;;;;;15.68;12.38;;;19.10;99.90;;;;;;5047994;28;20037;-55
2023/05/21 10:38:46;;;;;;;17.58;13.00;;;19.30;99.90;;;;;;5063359;28;20407;-55
2023/05/21 10:41:14;;;;;;;19.90;13.07;;;19.40;99.90;;;;;;5061008;28;20028;-56
2023/05/21 10:44:02;;;;;;;17.60;13.90;;;19.50;99.90;;;;;;5046731;28;20083;-56
2023/05/21 10:46:41;;;;;;;14.65;12.10;;;19.60;99.90;;;;;;5052571;28;20601;-57
2023/05/21 10:49:24;;;;;;;19.55;13.27;;;19.90;99.90;;;;;;5053854;28;20091;-57
2023/05/21 10:52:25;;;;;;;17.95;14.10;;;19.90;99.90;;;;;;5050732;28;20125;-57
2023/05/21 10:55:12;;;;;;;16.42;13.82;;;19.70;99.90;;;;;;5049793;28;20072;-56
2023/05/21 10:58:11;;;;;;;18.98;14.30;;;19.60;99.90;;;;;;5053841;28;20031;-56
2023/05/21 11:00:37;;;;;;;16.83;13.38;;;19.50;99.90;;;;;;5053347;28;20043;-57
2023/05/21 11:03:04;;;;;;;18.88;13.82;;;19.70;99.90;;;;;;5051332;28;20036;-56
2023/05/21 11:05:55;;;;;;;19.05;14.10;;;19.60;99.90;;;;;;5057451;28;22126;-56
2023/05/21 11:08:25;;;;;;;17.85;14.10;;;19.80;99.90;;;;;;5055688;28;20541;-56
2023/05/21 11:10:56;;;;;;;18.67;14.20;;;19.70;99.90;;;;;;5052691;28;20051;-56
2023/05/21 11:13:23;;;;;;;15.50;13.77;;;19.90;99.90;;;;;;5049796;28;20041;-57
2023/05/21 11:15:58;;;;;;;20.00;15.30;;;20.00;99.90;;;;;;5047471;28;20056;-56
2023/05/21 11:18:36;;;;;;;19.40;13.90;;;20.00;99.90;;;;;;5043724;28;20559;-56
2023/05/21 11:21:06;;;;;;;20.33;13.65;;;20.20;99.90;;;;;;5054959;28;20041;-57
2023/05/21 11:23:50;;;;;;;18.30;14.38;;;20.20;99.90;;;;;;5049547;28;20127;-56
2023/05/21 11:26:21;;;;;;;20.98;13.93;;;20.10;99.90;;;;;;5048953;28;20043;-57
2023/05/21 11:29:10;;;;;;;16.58;14.30;;;20.00;99.90;;;;;;5051642;28;20106;-57
2023/05/21 11:31:39;;;;;;;18.20;13.75;;;20.00;99.90;;;;;;5049520;28;20037;-56
2023/05/21 11:34:26;;;;;;;18.65;14.45;;;20.20;99.90;;;;;;5053437;28;20443;-57
2023/05/21 11:37:39;;;;;;;19.58;15.10;;;20.10;99.90;;;;;;5046213;28;20405;-56
2023/05/21 11:40:29;;;;;;;18.98;15.48;;;20.00;88.20;;;;;;5052996;28;20123;-56
2023/05/21 11:42:55;;;;;;;17.73;14.90;;;19.90;99.90;;;;;;5059227;28;20043;-57
2023/05/21 11:45:26;;;;;;;16.45;13.45;;;20.10;99.90;;;;;;5050501;28;20045;-57
2023/05/21 11:47:52;;;;;;;17.10;13.85;;;20.40;99.90;;;;;;5053545;28;20469;-57
2023/05/21 11:50:18;;;;;;;18.27;14.80;;;20.40;99.90;;;;;;5052664;28;20052;-56
2023/05/21 11:52:44;;;;;;;18.80;14.50;;;20.50;83.50;;;;;;5050946;28;20115;-56
2023/05/21 11:55:10;;;;;;;14.90;13.15;;;20.50;63.70;;;;;;5049799;28;20033;-56
2023/05/21 11:57:36;;;;;;;17.20;14.75;;;20.80;99.90;;;;;;5059585;28;20841;-56
2023/05/21 12:00:12;;;;;;;17.48;15.05;;;20.80;1.00;;;;;;5049285;28;20029;-57
2023/05/21 12:02:42;;;;;;;16.77;14.00;;;20.50;82.20;;;;;;5047852;28;20094;-56
2023/05/21 12:05:08;;;;;;;18.85;14.60;;;20.50;88.50;;;;;;5048645;28;20036;-57
2023/05/21 12:07:34;;;;;;;17.48;14.50;;;20.70;41.50;;;;;;5047263;28;20052;-56
2023/05/21 12:09:59;;;;;;;15.77;13.75;;;20.70;99.90;;;;;;5051429;28;20029;-57
2023/05/21 12:12:26;;;;;;;19.23;13.38;;;20.60;99.90;;;;;;5048303;28;20389;-58
2023/05/21 12:14:53;;;;;;;15.40;13.07;;;20.80;99.90;;;;;;5061769;28;20040;-58
2023/05/21 12:17:21;;;;;;;16.23;12.82;;;20.80;53.60;;;;;;5052399;28;20385;-58
2023/05/21 12:19:49;;;;;;;21.55;14.02;;;20.90;67.10;;;;;;5048756;28;20028;-59
2023/05/21 12:22:15;;;;;;;15.75;13.57;;;20.90;1.00;;;;;;5046722;28;20040;-60
2023/05/21 12:24:42;;;;;;;18.35;14.32;;;21.00;3.40;;;;;;5052773;28;20036;-59
2023/05/21 12:27:09;;;;;;;19.02;14.18;;;20.90;90.10;;;;;;5051724;28;20136;-60
2023/05/21 12:29:39;;;;;;;17.10;13.85;;;21.00;1.00;;;;;;5048193;28;20032;-59
2023/05/21 12:32:07;;;;;;;16.10;13.88;;;21.00;1.00;;;;;;5053100;28;20048;-59
2023/05/21 12:34:43;;;;;;;17.20;13.80;;;21.00;1.00;;;;;;5047006;28;20045;-60
2023/05/21 12:37:18;;;;;;;18.27;13.98;;;21.10;1.00;;;;;;5050222;28;20621;-59